createdAt,value
2022-09-23T00:02:47.687Z,10.13
2022-09-23T00:05:38.040Z,10.09
2022-09-23T00:08:25.593Z,10.15
2022-09-23T00:14:21.642Z,10.14
2022-09-23T00:17:08.664Z,10.10
2022-09-23T00:19:56.150Z,10.11
2022-09-23T00:22:45.557Z,10.08
2022-09-23T00:25:32.581Z,10.11
2022-09-23T00:28:19.729Z,10.07
2022-09-23T00:31:09.405Z,10.02
2022-09-23T00:33:57.812Z,9.92
2022-09-23T00:36:45.110Z,9.92
2022-09-23T00:39:33.668Z,9.84
2022-09-23T00:42:23.274Z,9.88
2022-09-23T00:45:12.478Z,9.85
2022-09-23T00:48:03.407Z,9.80
2022-09-23T00:50:54.466Z,9.74
2022-09-23T00:53:42.704Z,9.76
2022-09-23T00:56:33.834Z,9.70
2022-09-23T00:59:24.546Z,9.75
2022-09-23T01:02:14.314Z,9.86
2022-09-23T01:05:04.710Z,9.78
2022-09-23T01:07:54.053Z,9.87
2022-09-23T01:10:48.742Z,9.81
2022-09-23T01:13:48.981Z,9.80
2022-09-23T01:16:45.501Z,9.69
2022-09-23T01:20:04.281Z,9.64
2022-09-23T01:22:59.672Z,9.60
2022-09-23T01:26:13.739Z,9.73
2022-09-23T01:29:23.865Z,9.71
2022-09-23T01:32:20.808Z,9.58
2022-09-23T01:35:17.096Z,9.48
2022-09-23T01:38:15.721Z,9.48
2022-09-23T01:41:12.967Z,9.51
2022-09-23T01:44:06.986Z,9.48
2022-09-23T01:46:57.601Z,9.47
2022-09-23T01:49:52.857Z,9.55
2022-09-23T01:52:47.289Z,9.48
2022-09-23T01:55:40.353Z,9.41
2022-09-23T01:58:32.207Z,9.47
2022-09-23T02:01:27.421Z,9.51
2022-09-23T02:04:20.423Z,9.49
2022-09-23T02:07:16.394Z,9.39
2022-09-23T02:10:12.162Z,9.48
2022-09-23T02:13:05.589Z,9.57
2022-09-23T02:15:57.063Z,9.46
2022-09-23T02:18:48.617Z,9.40
2022-09-23T02:21:42.235Z,9.33
2022-09-23T02:24:34.629Z,9.39
2022-09-23T02:27:27.176Z,9.40
2022-09-23T02:30:17.096Z,9.37
2022-09-23T02:33:08.014Z,9.45
2022-09-23T02:36:01.288Z,9.33
2022-09-23T02:38:53.573Z,9.32
2022-09-23T02:41:53.707Z,9.27
2022-09-23T02:44:40.800Z,9.27
2022-09-23T02:47:33.071Z,9.41
2022-09-23T02:50:22.401Z,9.48
2022-09-23T02:53:10.211Z,9.48
2022-09-23T02:55:57.978Z,9.50
2022-09-23T02:58:47.400Z,9.45
2022-09-23T03:01:46.762Z,9.46
2022-09-23T03:04:48.408Z,9.38
2022-09-23T03:07:48.044Z,9.45
2022-09-23T03:10:45.232Z,9.64
2022-09-23T03:13:40.613Z,9.60
2022-09-23T03:16:35.752Z,9.65
2022-09-23T03:19:29.398Z,9.62
2022-09-23T03:22:20.675Z,9.65
2022-09-23T03:25:12.601Z,9.66
2022-09-23T03:28:02.602Z,9.60
2022-09-23T03:30:51.080Z,9.46
2022-09-23T03:33:42.435Z,9.48
2022-09-23T03:36:53.581Z,9.43
2022-09-23T03:39:44.349Z,9.62
2022-09-23T03:42:34.039Z,9.55
2022-09-23T03:45:27.322Z,9.57
2022-09-23T03:48:15.054Z,9.48
2022-09-23T03:51:20.661Z,9.53
2022-09-23T03:54:08.113Z,9.51
2022-09-23T03:56:57.617Z,9.49
2022-09-23T03:59:45.690Z,9.53
2022-09-23T04:02:33.098Z,9.42
2022-09-23T04:05:20.639Z,9.33
2022-09-23T04:08:09.437Z,9.31
2022-09-23T04:11:01.749Z,9.44
2022-09-23T04:13:49.387Z,9.41
2022-09-23T04:16:36.784Z,9.47
2022-09-23T04:19:24.678Z,9.39
2022-09-23T04:22:12.062Z,9.40
2022-09-23T04:25:00.687Z,9.47
2022-09-23T04:27:48.286Z,9.44
2022-09-23T04:30:36.038Z,9.26
2022-09-23T04:33:23.336Z,9.29
2022-09-23T04:36:10.337Z,9.27
2022-09-23T04:38:58.487Z,9.26
2022-09-23T04:41:48.318Z,9.19
2022-09-23T04:44:35.320Z,9.15
2022-09-23T04:47:22.752Z,9.22
2022-09-23T04:50:10.607Z,9.24
2022-09-23T04:52:58.201Z,9.18
2022-09-23T04:55:45.846Z,9.22
2022-09-23T04:58:34.827Z,9.41
2022-09-23T05:01:24.945Z,9.38
2022-09-23T05:04:14.176Z,9.21
2022-09-23T05:07:03.421Z,9.22
2022-09-23T05:09:50.754Z,9.15
2022-09-23T05:12:37.890Z,9.19
2022-09-23T05:15:26.686Z,9.19
2022-09-23T05:18:17.858Z,9.15
2022-09-23T05:21:08.112Z,9.23
2022-09-23T05:23:59.169Z,9.20
2022-09-23T05:26:46.926Z,9.24
2022-09-23T05:29:34.051Z,9.17
2022-09-23T05:32:23.166Z,9.39
2022-09-23T05:35:10.533Z,9.42
2022-09-23T05:37:57.864Z,9.44
2022-09-23T05:40:45.013Z,9.33
2022-09-23T05:43:33.765Z,9.24
2022-09-23T05:46:23.688Z,9.32
2022-09-23T05:49:12.640Z,9.23
2022-09-23T05:52:00.167Z,9.37
2022-09-23T05:54:47.550Z,9.26
2022-09-23T05:57:35.013Z,9.25
2022-09-23T06:00:22.432Z,9.32
2022-09-23T06:03:13.426Z,9.24
2022-09-23T06:06:02.672Z,9.31
2022-09-23T06:08:50.271Z,9.22
2022-09-23T06:11:38.313Z,9.39
2022-09-23T06:14:25.702Z,9.28
2022-09-23T06:17:12.974Z,9.31
2022-09-23T06:20:00.670Z,9.43
2022-09-23T06:22:53.781Z,9.58
2022-09-23T06:25:42.145Z,9.62
2022-09-23T06:28:32.136Z,9.62
2022-09-23T06:31:19.757Z,9.81
2022-09-23T06:34:12.249Z,9.85
2022-09-23T06:37:10.120Z,9.88
2022-09-23T06:40:03.539Z,10.22
2022-09-23T06:42:58.986Z,10.55
2022-09-23T06:45:46.852Z,10.82
2022-09-23T06:48:35.414Z,11.09
2022-09-23T06:51:22.626Z,11.43
2022-09-23T06:54:11.121Z,11.61
2022-09-23T06:57:00.128Z,11.89
2022-09-23T06:59:47.328Z,12.19
2022-09-23T07:02:34.589Z,12.26
2022-09-23T07:05:22.627Z,12.53
2022-09-23T07:08:10.391Z,12.45
2022-09-23T07:10:58.623Z,12.37
2022-09-23T07:13:47.731Z,12.35
2022-09-23T07:16:35.134Z,12.24
2022-09-23T07:19:22.575Z,12.36
2022-09-23T07:22:09.598Z,12.21
2022-09-23T07:24:57.349Z,11.86
2022-09-23T07:27:48.379Z,11.96
2022-09-23T07:30:41.165Z,11.88
2022-09-23T07:33:33.410Z,11.93
2022-09-23T07:36:20.874Z,12.09
2022-09-23T07:39:09.635Z,12.41
2022-09-23T07:41:56.987Z,12.55
2022-09-23T07:44:45.448Z,12.89
2022-09-23T07:47:34.091Z,13.09
2022-09-23T07:50:22.547Z,13.37
2022-09-23T07:53:09.584Z,13.58
2022-09-23T07:55:58.188Z,13.52
2022-09-23T07:58:46.214Z,13.64
2022-09-23T08:01:35.610Z,13.64
2022-09-23T08:04:27.452Z,13.67
2022-09-23T08:07:14.676Z,13.68
2022-09-23T08:10:02.910Z,13.77
2022-09-23T08:12:50.215Z,13.91
2022-09-23T08:15:37.776Z,13.76
2022-09-23T08:18:25.398Z,13.86
2022-09-23T08:21:14.593Z,14.01
2022-09-23T08:24:02.882Z,14.36
2022-09-23T08:26:51.434Z,14.63
2022-09-23T08:29:39.278Z,14.74
2022-09-23T08:32:26.806Z,14.87
2022-09-23T08:35:14.396Z,14.62
2022-09-23T08:38:03.646Z,14.59
2022-09-23T08:40:51.515Z,14.99
2022-09-23T08:43:39.783Z,14.89
2022-09-23T08:46:32.406Z,15.23
2022-09-23T08:49:27.534Z,15.67
2022-09-23T08:52:21.386Z,15.70
2022-09-23T08:55:14.536Z,15.37
2022-09-23T08:58:26.173Z,14.87
2022-09-23T09:01:23.002Z,14.64
2022-09-23T09:04:18.554Z,14.73
2022-09-23T09:10:26.815Z,15.46
2022-09-23T09:13:26.386Z,15.57
2022-09-23T09:16:55.625Z,15.89
2022-09-23T09:19:56.719Z,16.12
2022-09-23T09:22:53.491Z,16.27
2022-09-23T09:25:47.643Z,16.24
2022-09-23T09:28:40.419Z,16.34
2022-09-23T09:31:34.216Z,16.41
2022-09-23T09:34:30.607Z,16.43
2022-09-23T09:37:24.871Z,16.59
2022-09-23T09:40:14.177Z,16.45
2022-09-23T09:43:04.720Z,16.64
2022-09-23T09:46:05.195Z,16.91
2022-09-23T09:48:57.707Z,16.96
2022-09-23T09:51:44.904Z,17.23
2022-09-23T09:54:32.625Z,17.39
2022-09-23T09:57:33.535Z,17.50
2022-09-23T10:00:42.919Z,17.84
2022-09-23T10:03:38.763Z,17.72
2022-09-23T10:06:27.772Z,17.63
2022-09-23T10:09:19.317Z,17.56
2022-09-23T10:12:15.698Z,17.68
2022-09-23T10:15:02.845Z,17.58
2022-09-23T10:17:52.624Z,17.70
2022-09-23T10:20:40.355Z,17.66
2022-09-23T10:23:33.562Z,17.81
2022-09-23T10:26:31.148Z,17.86
2022-09-23T10:29:26.084Z,17.95
2022-09-23T10:32:26.921Z,18.07
2022-09-23T10:35:18.416Z,18.37
2022-09-23T10:38:05.671Z,18.46
2022-09-23T10:41:12.740Z,18.37
2022-09-23T10:44:34.103Z,18.57
2022-09-23T10:47:30.089Z,18.60
2022-09-23T10:50:33.094Z,18.82
2022-09-23T10:53:30.092Z,18.71
2022-09-23T10:56:31.680Z,18.70
2022-09-23T10:59:51.238Z,18.75
2022-09-23T11:02:58.394Z,18.96
2022-09-23T11:05:58.253Z,19.11
2022-09-23T11:09:05.873Z,19.25
2022-09-23T11:12:08.483Z,18.87
2022-09-23T11:15:14.503Z,18.93
2022-09-23T11:18:30.273Z,18.92
2022-09-23T11:21:46.536Z,18.94
2022-09-23T11:25:01.369Z,18.89
2022-09-23T11:28:07.218Z,19.01
2022-09-23T11:31:02.085Z,19.17
2022-09-23T11:34:03.579Z,19.21
2022-09-23T11:36:57.723Z,19.17
2022-09-23T11:39:50.860Z,19.22
2022-09-23T11:42:47.899Z,19.09
2022-09-23T11:45:40.833Z,19.15
2022-09-23T11:48:34.060Z,18.89
2022-09-23T11:51:29.338Z,18.80
2022-09-23T11:54:22.289Z,19.02
2022-09-23T11:57:18.339Z,18.91
2022-09-23T12:00:08.645Z,18.78
2022-09-23T12:03:06.728Z,18.63
2022-09-23T12:06:01.322Z,18.59
2022-09-23T12:08:54.368Z,18.69
2022-09-23T12:11:49.507Z,18.76
2022-09-23T12:14:43.430Z,18.85
2022-09-23T12:17:56.308Z,19.00
2022-09-23T12:20:59.670Z,19.12
2022-09-23T12:24:03.234Z,19.21
2022-09-23T12:26:56.235Z,18.94
2022-09-23T12:29:43.939Z,18.83
2022-09-23T12:32:32.384Z,18.86
2022-09-23T12:35:23.700Z,18.93
2022-09-23T12:38:19.474Z,18.97
2022-09-23T12:41:25.399Z,19.03
2022-09-23T12:44:37.059Z,18.99
2022-09-23T12:47:41.000Z,19.05
2022-09-23T12:50:51.871Z,19.00
2022-09-23T12:53:58.493Z,19.21
2022-09-23T12:57:03.169Z,19.32
2022-09-23T13:00:19.584Z,19.48
2022-09-23T13:03:31.437Z,19.58
2022-09-23T13:06:39.083Z,19.66
2022-09-23T13:09:30.512Z,19.61
2022-09-23T13:12:22.114Z,19.50
2022-09-23T13:15:20.137Z,19.52
2022-09-23T13:19:00.095Z,19.26
2022-09-23T13:22:08.980Z,19.38
2022-09-23T13:25:04.024Z,19.16
2022-09-23T13:27:55.378Z,19.18
2022-09-23T13:30:52.300Z,18.95
2022-09-23T13:33:43.880Z,18.94
2022-09-23T13:36:36.682Z,18.94
2022-09-23T13:39:26.023Z,18.94
2022-09-23T13:42:22.688Z,18.77
2022-09-23T13:45:17.164Z,18.79
2022-09-23T13:48:08.526Z,18.87
2022-09-23T13:50:56.101Z,19.01
2022-09-23T13:53:43.339Z,18.97
2022-09-23T13:56:33.530Z,18.95
2022-09-23T13:59:26.398Z,18.97
2022-09-23T14:02:15.528Z,18.98
2022-09-23T14:05:14.028Z,18.86
2022-09-23T14:08:02.548Z,18.91
2022-09-23T14:10:50.161Z,18.67
2022-09-23T14:13:43.113Z,18.68
2022-09-23T14:16:31.390Z,18.70
2022-09-23T14:19:19.696Z,18.72
2022-09-23T14:22:24.191Z,18.74
2022-09-23T14:25:15.991Z,18.68
2022-09-23T14:28:03.688Z,18.59
2022-09-23T14:30:53.747Z,18.40
2022-09-23T14:33:43.615Z,18.40
2022-09-23T14:36:55.003Z,18.23
2022-09-23T14:39:45.299Z,18.25
2022-09-23T14:42:41.290Z,18.25
2022-09-23T14:45:33.569Z,18.29
2022-09-23T14:48:25.089Z,18.29
2022-09-23T14:51:16.895Z,18.31
2022-09-23T14:54:26.380Z,18.37
2022-09-23T14:57:27.400Z,18.45
2022-09-23T15:00:18.579Z,18.43
2022-09-23T15:03:15.932Z,18.52
2022-09-23T15:06:09.233Z,18.60
2022-09-23T15:08:57.368Z,18.43
2022-09-23T15:11:45.040Z,18.29
2022-09-23T15:14:39.871Z,18.22
2022-09-23T15:17:32.770Z,18.35
2022-09-23T15:20:25.004Z,18.38
2022-09-23T15:23:34.416Z,18.24
2022-09-23T15:26:24.158Z,18.21
2022-09-23T15:29:39.761Z,18.19
2022-09-23T15:32:28.736Z,18.24
2022-09-23T15:35:18.692Z,18.19
2022-09-23T15:38:07.719Z,18.18
2022-09-23T15:40:55.287Z,18.15
2022-09-23T15:43:43.503Z,18.05
2022-09-23T15:46:34.134Z,17.88
2022-09-23T15:49:30.297Z,17.89
2022-09-23T15:52:18.808Z,17.85
2022-09-23T15:55:17.261Z,17.87
2022-09-23T15:58:04.929Z,17.84
2022-09-23T16:00:56.799Z,17.77
2022-09-23T16:03:51.587Z,17.73
2022-09-23T16:06:43.417Z,17.63
2022-09-23T16:09:31.656Z,17.60
2022-09-23T16:12:18.907Z,17.54
2022-09-23T16:15:15.025Z,17.58
2022-09-23T16:18:02.971Z,17.57
2022-09-23T16:20:51.253Z,17.47
2022-09-23T16:23:43.891Z,17.42
2022-09-23T16:26:34.591Z,17.35
2022-09-23T16:29:22.598Z,17.27
2022-09-23T16:32:10.001Z,17.19
2022-09-23T16:34:58.031Z,17.14
2022-09-23T16:37:47.043Z,17.10
2022-09-23T16:40:35.780Z,17.06
2022-09-23T16:43:23.573Z,17.01
2022-09-23T16:46:13.241Z,16.95
2022-09-23T16:49:01.617Z,16.91
2022-09-23T16:51:49.044Z,16.82
2022-09-23T16:54:37.459Z,16.78
2022-09-23T16:57:27.021Z,16.74
2022-09-23T17:00:34.315Z,16.68
2022-09-23T17:03:39.578Z,16.57
2022-09-23T17:06:29.034Z,16.42
2022-09-23T17:09:16.729Z,16.35
2022-09-23T17:12:11.291Z,16.32
2022-09-23T17:15:00.742Z,16.27
2022-09-23T17:17:47.906Z,16.20
2022-09-23T17:20:35.850Z,16.09
2022-09-23T17:23:23.405Z,16.05
2022-09-23T17:26:12.410Z,15.96
2022-09-23T17:29:02.188Z,15.85
2022-09-23T17:31:51.071Z,15.80
2022-09-23T17:34:38.548Z,15.74
2022-09-23T17:37:25.947Z,15.63
2022-09-23T17:40:13.847Z,15.57
2022-09-23T17:43:01.355Z,15.48
2022-09-23T17:45:50.054Z,15.45
2022-09-23T17:48:41.455Z,15.34
2022-09-23T17:51:29.719Z,15.28
2022-09-23T17:54:17.631Z,15.22
2022-09-23T17:57:04.998Z,15.16
2022-09-23T17:59:53.706Z,15.14
2022-09-23T18:02:41.478Z,15.06
2022-09-23T18:05:31.444Z,15.02
2022-09-23T18:08:19.320Z,14.95
2022-09-23T18:11:14.458Z,14.99
2022-09-23T18:14:03.336Z,14.89
2022-09-23T18:16:53.607Z,14.82
2022-09-23T18:19:40.957Z,14.77
2022-09-23T18:22:30.015Z,14.68
2022-09-23T18:25:38.031Z,14.67
2022-09-23T18:28:25.494Z,14.63
2022-09-23T18:31:13.509Z,14.63
2022-09-23T18:34:01.342Z,14.65
2022-09-23T18:36:50.146Z,14.64
2022-09-23T18:39:38.895Z,14.62
2022-09-23T18:42:27.052Z,14.55
2022-09-23T18:45:14.764Z,14.54
2022-09-23T18:48:20.135Z,14.56
2022-09-23T18:51:08.835Z,14.52
2022-09-23T18:53:58.527Z,14.48
2022-09-23T18:56:47.656Z,14.44
2022-09-23T18:59:35.159Z,14.41
2022-09-23T19:02:22.611Z,14.39
2022-09-23T19:05:10.501Z,14.42
2022-09-23T19:07:58.068Z,14.39
2022-09-23T19:10:46.179Z,14.32
2022-09-23T19:13:36.245Z,14.28
2022-09-23T19:16:25.122Z,14.22
2022-09-23T19:19:12.966Z,14.26
2022-09-23T19:22:00.709Z,14.25
2022-09-23T19:24:48.177Z,14.23
2022-09-23T19:27:36.792Z,14.18
2022-09-23T19:30:25.758Z,14.23
2022-09-23T19:33:13.416Z,14.20
2022-09-23T19:36:00.946Z,14.17
2022-09-23T19:38:48.515Z,14.13
2022-09-23T19:41:36.448Z,14.09
2022-09-23T19:44:25.153Z,14.10
2022-09-23T19:47:17.899Z,14.05
2022-09-23T19:50:07.321Z,14.06
2022-09-23T19:52:54.754Z,14.06
2022-09-23T19:55:44.509Z,14.04
2022-09-23T19:58:33.314Z,14.12
2022-09-23T20:01:22.138Z,14.09
2022-09-23T20:04:11.924Z,14.09
2022-09-23T20:06:59.201Z,14.02
2022-09-23T20:09:46.692Z,14.00
2022-09-23T20:12:34.677Z,13.97
2022-09-23T20:15:23.245Z,13.93
2022-09-23T20:18:11.462Z,13.86
2022-09-23T20:21:00.225Z,13.83
2022-09-23T20:23:48.483Z,13.81
2022-09-23T20:26:52.825Z,13.80
2022-09-23T20:29:40.209Z,13.75
2022-09-23T20:32:27.472Z,13.75
2022-09-23T20:35:16.340Z,13.75
2022-09-23T20:38:08.094Z,13.78
2022-09-23T20:40:57.092Z,13.74
2022-09-23T20:43:44.814Z,13.73
2022-09-23T20:46:32.397Z,13.75
2022-09-23T20:49:20.959Z,13.67
2022-09-23T20:52:08.808Z,13.64
2022-09-23T20:54:59.708Z,13.65
2022-09-23T20:57:48.840Z,13.59
2022-09-23T21:00:36.245Z,13.62
2022-09-23T21:03:24.162Z,13.64
2022-09-23T21:06:14.002Z,13.62
2022-09-23T21:09:01.920Z,13.58
2022-09-23T21:11:50.905Z,13.53
2022-09-23T21:14:38.501Z,13.49
2022-09-23T21:17:27.026Z,13.58
2022-09-23T21:20:14.913Z,13.68
2022-09-23T21:23:02.481Z,13.60
2022-09-23T21:25:49.828Z,13.41
2022-09-23T21:28:40.927Z,13.34
2022-09-23T21:31:33.919Z,13.33
2022-09-23T21:34:21.751Z,13.36
2022-09-23T21:37:09.167Z,13.34
2022-09-23T21:40:10.552Z,13.33
2022-09-23T21:42:59.954Z,13.29
2022-09-23T21:45:49.404Z,13.29
2022-09-23T21:48:38.291Z,13.28
2022-09-23T21:51:27.599Z,13.37
2022-09-23T21:54:17.166Z,13.36
2022-09-23T21:57:04.368Z,13.36
2022-09-23T21:59:53.914Z,13.30
2022-09-23T22:02:42.963Z,13.29
2022-09-23T22:05:30.236Z,13.31
2022-09-23T22:08:17.538Z,13.27
2022-09-23T22:11:07.788Z,13.26
2022-09-23T22:13:55.125Z,13.25
2022-09-23T22:16:43.288Z,13.22
2022-09-23T22:19:35.662Z,13.26
2022-09-23T22:22:23.137Z,13.25
2022-09-23T22:25:12.744Z,13.27
2022-09-23T22:28:17.482Z,13.30
2022-09-23T22:31:22.973Z,13.28
2022-09-23T22:34:25.478Z,13.24
2022-09-23T22:37:21.661Z,13.26
2022-09-23T22:40:14.539Z,13.20
2022-09-23T22:43:02.875Z,13.24
2022-09-23T22:45:51.827Z,13.19
2022-09-23T22:48:39.224Z,13.23
2022-09-23T22:51:27.060Z,13.23
2022-09-23T22:54:15.850Z,13.18
2022-09-23T22:57:05.190Z,13.12
2022-09-23T22:59:53.219Z,13.19
2022-09-23T23:02:42.577Z,13.10
2022-09-23T23:05:30.670Z,13.12
2022-09-23T23:08:18.344Z,13.11
2022-09-23T23:11:11.079Z,13.24
2022-09-23T23:14:01.463Z,13.56
2022-09-23T23:16:49.425Z,13.54
2022-09-23T23:19:37.366Z,13.58
2022-09-23T23:22:27.497Z,13.59
2022-09-23T23:25:15.334Z,13.47
2022-09-23T23:28:05.780Z,13.25
2022-09-23T23:30:53.058Z,13.08
2022-09-23T23:33:42.018Z,13.02
2022-09-23T23:36:31.382Z,12.99
2022-09-23T23:39:19.197Z,12.98
2022-09-23T23:42:06.726Z,12.96
2022-09-23T23:44:55.729Z,12.97
2022-09-23T23:47:44.065Z,13.02
2022-09-23T23:50:31.119Z,13.13
2022-09-23T23:53:19.320Z,13.13
2022-09-23T23:56:08.825Z,13.07
2022-09-23T23:58:56.811Z,12.99
